Noble Oak — 3ECQ — position and weather

sailwx.info

Track history (hours):
 
Tides and Currents Weather Stations Pressure Air Temp Water Temp Dewpoint Dewpoint Depression Visibility Wind Speed Wind Dir Waves Ship Positions

Noble Oak

Last reported at 2018-Jun-22 11:35 UTC. Time now 2018-Jun-23 23:37 UTC.
Position N 22°49' E 120°05'.

Length 170 m; draft 5.6 m.

Type: Cargo ship. MMSI: 371387000.

Date/timePositionNaut miles runAvg speedWind from/ knotsBaromVisibWave heightAir tempDewpointWater temp
2018-Jun-22 11:35N 22°49' E 120°05'112.6
2018-Jun-22 11:30N 22°49' E 120°05'612.9
2018-Jun-22 11:00N 22°43' E 120°09'611.9
2018-Jun-22 10:30N 22°38' E 120°13'4 8.2
2018-Jun-22 10:00N 22°37' E 120°17'1 2.1
2018-Jun-22 09:30N 22°36' E 120°18'0 0.2
2018-Jun-22 08:52N 22°36' E 120°18'0 0.0
2018-Jun-22 08:28N 22°36' E 120°18'0 0.0
2018-Jun-22 07:58N 22°36' E 120°18'0 0.0
2018-Jun-22 06:52N 22°36' E 120°18'0 0.0
2018-Jun-22 06:28N 22°36' E 120°18'0 0.0
2018-Jun-22 05:58N 22°36' E 120°18'0 0.0
2018-Jun-22 05:28N 22°36' E 120°18'0 0.0
2018-Jun-22 04:58N 22°36' E 120°18'0 0.0
2018-Jun-22 04:28N 22°36' E 120°18'0 0.0
2018-Jun-22 03:46N 22°36' E 120°18'0 0.0
2018-Jun-22 03:28N 22°36' E 120°18'0 0.0
2018-Jun-22 02:58N 22°36' E 120°18'0 0.0
2018-Jun-22 02:28N 22°36' E 120°18'0 0.0
2018-Jun-22 01:58N 22°36' E 120°18'0 0.0
2018-Jun-22 01:28N 22°36' E 120°18'0 0.0
2018-Jun-22 00:58N 22°36' E 120°18'0 0.0
2018-Jun-22 00:28N 22°36' E 120°18'0 0.0
2018-Jun-21 23:58N 22°36' E 120°18'0 0.0
2018-Jun-21 23:28N 22°36' E 120°18'0 0.0
2018-Jun-21 22:58N 22°36' E 120°18'0 0.0
2018-Jun-21 22:28N 22°36' E 120°18'0 0.0
2018-Jun-21 21:58N 22°36' E 120°18'0 0.0
2018-Jun-21 21:22N 22°36' E 120°18'0 0.0
2018-Jun-21 20:58N 22°36' E 120°18'0 0.0
2018-Jun-21 20:22N 22°36' E 120°18'0 0.0
2018-Jun-21 19:58N 22°36' E 120°18'0 0.0
2018-Jun-21 19:22N 22°36' E 120°18'0 0.0
2018-Jun-21 18:58N 22°36' E 120°18'0 0.0
2018-Jun-21 18:28N 22°36' E 120°18'0 0.0
2018-Jun-21 17:58N 22°36' E 120°18'0 0.0
2018-Jun-21 17:28N 22°36' E 120°18'0 0.0
2018-Jun-21 16:58N 22°36' E 120°18'0 0.0
2018-Jun-21 16:28N 22°36' E 120°18'0 0.0
2018-Jun-21 15:58N 22°36' E 120°18'0 0.0
2018-Jun-21 15:22N 22°36' E 120°18'0 0.0
2018-Jun-21 14:58N 22°36' E 120°18'0 0.0
2018-Jun-21 14:28N 22°36' E 120°18'0 0.0
2018-Jun-21 13:58N 22°36' E 120°18'0 0.0
2018-Jun-21 13:28N 22°36' E 120°18'0 0.0
2018-Jun-21 12:34N 22°36' E 120°18'0 0.0
2018-Jun-21 12:16N 22°36' E 120°18'0 0.0
2018-Jun-21 11:58N 22°36' E 120°18'0 0.0
2018-Jun-21 11:28N 22°36' E 120°18'0 0.0
2018-Jun-21 10:52N 22°36' E 120°18'0 0.0
2018-Jun-21 10:28N 22°36' E 120°18'0 0.0
2018-Jun-21 09:58N 22°36' E 120°18'0 0.0
2018-Jun-21 09:28N 22°36' E 120°18'0 0.0
2018-Jun-21 08:52N 22°36' E 120°18'0 0.0
2018-Jun-21 08:28N 22°36' E 120°18'0 0.0
2018-Jun-21 07:58N 22°36' E 120°18'0 0.0
2018-Jun-21 07:22N 22°36' E 120°18'0 0.0
2018-Jun-21 07:01N 22°36' E 120°18'1 1.3
2018-Jun-21 06:30N 22°37' E 120°17'3 6.5
2018-Jun-21 06:00N 22°37' E 120°14'2 4.5
2018-Jun-21 05:30N 22°38' E 120°12'5 9.0
2018-Jun-21 05:00N 22°42' E 120°09'510.0
2018-Jun-21 04:30N 22°46' E 120°07'6 9.6
2018-Jun-21 03:56N 22°51' E 120°04'5 9.8
2018-Jun-21 03:24N 22°55' E 120°01'  
2018-Jun-16 08:57N 33°56' E 134°56'511.2
2018-Jun-16 08:30N 34°01' E 134°58'511.1
2018-Jun-16 08:00N 34°06' E 135°01'611.7
2018-Jun-16 07:30N 34°11' E 135°04'4 7.9
2018-Jun-16 07:00N 34°14' E 135°07'0 0.6
2018-Jun-16 06:30N 34°14' E 135°07'0 0.0
2018-Jun-16 06:00N 34°14' E 135°07'0 0.0
2018-Jun-16 05:30N 34°14' E 135°07'0 0.0
2018-Jun-16 04:59N 34°14' E 135°07'0 0.0
2018-Jun-16 04:15N 34°14' E 135°07'0 0.0
2018-Jun-16 03:45N 34°14' E 135°07'0 0.0
2018-Jun-16 03:30N 34°14' E 135°07'0 0.0
2018-Jun-16 02:59N 34°14' E 135°07'0 0.0
2018-Jun-16 02:27N 34°14' E 135°07'0 0.0
2018-Jun-16 02:00N 34°14' E 135°07'0 0.0
2018-Jun-16 01:29N 34°14' E 135°07'0 0.0
2018-Jun-16 01:00N 34°14' E 135°07'0 0.0
2018-Jun-16 00:21N 34°14' E 135°07'0 0.0
2018-Jun-15 23:56N 34°14' E 135°07'0 0.0
2018-Jun-15 23:24N 34°14' E 135°07'0 0.0
2018-Jun-15 22:59N 34°14' E 135°07'0 0.0
2018-Jun-15 22:29N 34°14' E 135°07'0 0.0
2018-Jun-15 21:53N 34°14' E 135°07'0 0.0
2018-Jun-15 21:29N 34°14' E 135°07'0 0.0
2018-Jun-15 20:59N 34°14' E 135°07'0 0.0
2018-Jun-15 20:29N 34°14' E 135°07'0 0.0
2018-Jun-15 20:00N 34°14' E 135°07'0 0.0
2018-Jun-15 19:29N 34°14' E 135°07'0 0.0
2018-Jun-15 19:00N 34°14' E 135°07'0 0.0
2018-Jun-15 18:29N 34°14' E 135°07'0 0.0
2018-Jun-15 18:00N 34°14' E 135°07'0 0.1
2018-Jun-15 17:26N 34°14' E 135°07'0 0.1
2018-Jun-15 17:00N 34°14' E 135°07'0 0.0
2018-Jun-15 16:29N 34°14' E 135°07'0 0.0
2018-Jun-15 16:00N 34°14' E 135°07'0 0.0
2018-Jun-15 15:29N 34°14' E 135°07'0 0.0
2018-Jun-15 15:00N 34°14' E 135°07'0 0.0
2018-Jun-15 14:30N 34°14' E 135°07'0 0.0
2018-Jun-15 14:00N 34°14' E 135°07'0 0.0
2018-Jun-15 13:29N 34°14' E 135°07'0 0.0
2018-Jun-15 13:00N 34°14' E 135°07'0 0.0
2018-Jun-15 12:30N 34°14' E 135°07'0 0.0
2018-Jun-15 11:57N 34°14' E 135°07'0 0.0
2018-Jun-15 11:29N 34°14' E 135°07'0 0.0
2018-Jun-15 10:59N 34°14' E 135°07'0 0.0
2018-Jun-15 10:30N 34°14' E 135°07'0 0.0
2018-Jun-15 10:00N 34°14' E 135°07'0 0.0
2018-Jun-15 09:29N 34°14' E 135°07'0 0.0
2018-Jun-15 09:00N 34°14' E 135°07'0 0.0
2018-Jun-15 08:30N 34°14' E 135°07'0 0.0
2018-Jun-15 07:59N 34°14' E 135°07'0 0.0
2018-Jun-15 07:30N 34°14' E 135°07'0 0.0
2018-Jun-15 06:59N 34°14' E 135°07'0 0.0
2018-Jun-15 06:30N 34°14' E 135°07'0 0.0
2018-Jun-15 05:59N 34°14' E 135°07'0 0.0
2018-Jun-15 05:29N 34°14' E 135°07'0 0.0
2018-Jun-15 04:59N 34°14' E 135°07'0 0.0
2018-Jun-15 04:30N 34°14' E 135°07'0 0.0
2018-Jun-15 03:59N 34°14' E 135°07'0 0.0
2018-Jun-15 03:30N 34°14' E 135°07'0 0.0
2018-Jun-15 03:00N 34°14' E 135°07'0 0.0
2018-Jun-15 02:30N 34°14' E 135°07'0 0.0
2018-Jun-15 02:00N 34°14' E 135°07'0 0.0
2018-Jun-15 01:30N 34°14' E 135°07'0 0.0
2018-Jun-15 00:59N 34°14' E 135°07'0 0.0
2018-Jun-15 00:29N 34°14' E 135°07'0 0.0
2018-Jun-14 23:59N 34°14' E 135°07'0 0.0
2018-Jun-14 23:30N 34°14' E 135°07'0 0.0
2018-Jun-14 22:59N 34°14' E 135°07'0 0.0
2018-Jun-14 22:30N 34°14' E 135°07'0 0.0
2018-Jun-14 22:00N 34°14' E 135°07'0 0.0
2018-Jun-14 21:30N 34°14' E 135°07'0 0.0
2018-Jun-14 21:00N 34°14' E 135°07'0 0.0
2018-Jun-14 20:30N 34°14' E 135°07'0 0.0
2018-Jun-14 19:59N 34°14' E 135°07'0 0.0
2018-Jun-14 19:29N 34°14' E 135°07'0 0.0
2018-Jun-14 18:59N 34°14' E 135°07'0 0.0
2018-Jun-14 18:30N 34°14' E 135°07'0 0.0
2018-Jun-14 18:00N 34°14' E 135°07'0 0.0
2018-Jun-14 17:29N 34°14' E 135°07'0 0.0
2018-Jun-14 17:00N 34°14' E 135°07'0 0.0
2018-Jun-14 16:29N 34°14' E 135°07'0 0.0
2018-Jun-14 16:00N 34°14' E 135°07'0 0.0
2018-Jun-14 15:29N 34°14' E 135°07'0 0.0
2018-Jun-14 15:00N 34°14' E 135°07'0 0.0
2018-Jun-14 14:29N 34°14' E 135°07'0 0.0
2018-Jun-14 13:59N 34°14' E 135°07'0 0.0
2018-Jun-14 13:30N 34°14' E 135°07'0 0.0
2018-Jun-14 13:00N 34°14' E 135°07'0 0.0
2018-Jun-14 12:26N 34°14' E 135°07'0 0.0
2018-Jun-14 12:00N 34°14' E 135°07'0 0.0
2018-Jun-14 11:29N 34°14' E 135°07'0 0.0
2018-Jun-14 11:00N 34°14' E 135°07'0 0.0
2018-Jun-14 10:29N 34°14' E 135°07'0 0.0
2018-Jun-14 10:00N 34°14' E 135°07'0 0.0
2018-Jun-14 09:30N 34°14' E 135°07'0 0.0
2018-Jun-14 08:56N 34°14' E 135°07'0 0.0
2018-Jun-14 08:30N 34°14' E 135°07'0 0.0
2018-Jun-14 08:00N 34°14' E 135°07'0 0.0
2018-Jun-14 07:30N 34°14' E 135°07'0 0.0
2018-Jun-14 06:57N 34°14' E 135°07'0 0.0
2018-Jun-14 06:27N 34°14' E 135°07'0 0.0
2018-Jun-14 05:57N 34°14' E 135°07'0 0.0
2018-Jun-14 05:27N 34°14' E 135°07'0 0.0
2018-Jun-14 04:59N 34°14' E 135°07'0 0.0
2018-Jun-14 04:27N 34°14' E 135°07'0 0.0
2018-Jun-14 03:56N 34°14' E 135°07'0 0.0
2018-Jun-14 03:29N 34°14' E 135°07'0 0.0
2018-Jun-14 02:57N 34°14' E 135°07'0 0.0
2018-Jun-14 02:30N 34°14' E 135°07'0 0.0
2018-Jun-14 02:00N 34°14' E 135°07'0 0.0
2018-Jun-14 01:29N 34°14' E 135°07'0 0.0
2018-Jun-14 00:59N 34°14' E 135°07'0 0.0
2018-Jun-14 00:30N 34°14' E 135°07'0 0.0
2018-Jun-13 23:57N 34°14' E 135°07'0 0.0
2018-Jun-13 23:27N 34°14' E 135°07'0 0.0
2018-Jun-13 22:56N 34°14' E 135°07'0 0.0
2018-Jun-13 22:29N 34°14' E 135°07'0 0.0
2018-Jun-13 21:57N 34°14' E 135°07'0 0.0
2018-Jun-13 21:27N 34°14' E 135°07'0 0.0
2018-Jun-13 20:57N 34°14' E 135°07'0 0.0
2018-Jun-13 20:27N 34°14' E 135°07'0 0.0
2018-Jun-13 19:56N 34°14' E 135°07'0 0.0
2018-Jun-13 19:30N 34°14' E 135°07'0 0.0
2018-Jun-13 18:57N 34°14' E 135°07'0 0.0
2018-Jun-13 18:30N 34°14' E 135°07'0 0.0
2018-Jun-13 17:59N 34°14' E 135°07'0 0.0
2018-Jun-13 17:30N 34°14' E 135°07'0 0.0
2018-Jun-13 16:56N 34°14' E 135°07'0 0.0
2018-Jun-13 16:29N 34°14' E 135°07'0 0.0
2018-Jun-13 15:51N 34°14' E 135°07'0 0.0
2018-Jun-13 15:26N 34°14' E 135°07'0 0.0
2018-Jun-13 14:56N 34°14' E 135°07'0 0.0
2018-Jun-13 14:27N 34°14' E 135°07'0 0.0
2018-Jun-13 13:56N 34°14' E 135°07'0 0.0
2018-Jun-13 13:26N 34°14' E 135°07'0 0.0
2018-Jun-13 12:59N 34°14' E 135°07'0 0.0
2018-Jun-13 12:26N 34°14' E 135°07'0 0.0
2018-Jun-13 11:59N 34°14' E 135°07'0 0.0
2018-Jun-13 11:29N 34°14' E 135°07'0 0.0
2018-Jun-13 10:59N 34°14' E 135°07'0 0.0
2018-Jun-13 10:29N 34°14' E 135°07'0 0.0
2018-Jun-13 09:59N 34°14' E 135°07'0 0.0
2018-Jun-13 09:30N 34°14' E 135°07'0 0.0
2018-Jun-13 09:00N 34°14' E 135°07'0 0.0
2018-Jun-13 08:29N 34°14' E 135°07'0 0.0
2018-Jun-13 07:59N 34°14' E 135°07'0 0.0
2018-Jun-13 07:30N 34°14' E 135°07'0 0.0
2018-Jun-13 07:00N 34°14' E 135°07'0 0.0
2018-Jun-13 06:29N 34°14' E 135°07'0 0.0
2018-Jun-13 05:59N 34°14' E 135°07'0 0.0
2018-Jun-13 05:30N 34°14' E 135°07'0 0.0
2018-Jun-13 05:00N 34°14' E 135°07'0 0.0
2018-Jun-13 04:29N 34°14' E 135°07'0 0.0
2018-Jun-13 03:59N 34°14' E 135°07'0 0.0
2018-Jun-13 03:29N 34°14' E 135°07'0 0.0
2018-Jun-13 02:59N 34°14' E 135°07'0 0.0
2018-Jun-13 02:29N 34°14' E 135°07'0 0.0
2018-Jun-13 02:00N 34°14' E 135°07'0 0.0
2018-Jun-13 01:29N 34°14' E 135°07'0 0.0
2018-Jun-13 01:00N 34°14' E 135°07'0 0.0
2018-Jun-13 00:29N 34°14' E 135°07'0 0.0
2018-Jun-13 00:00N 34°14' E 135°07'0 0.0
2018-Jun-12 23:29N 34°14' E 135°07'0 0.0
2018-Jun-12 22:59N 34°14' E 135°07'0 0.0
2018-Jun-12 22:30N 34°14' E 135°07'0 0.0
2018-Jun-12 21:59N 34°14' E 135°07'0 0.0
2018-Jun-12 21:23N 34°14' E 135°07'0 0.0
2018-Jun-12 20:59N 34°14' E 135°07'0 0.0
2018-Jun-12 20:29N 34°14' E 135°07'0 0.0
2018-Jun-12 19:59N 34°14' E 135°07'0 0.0
2018-Jun-12 19:29N 34°14' E 135°07'0 0.0
2018-Jun-12 19:00N 34°14' E 135°07'0 0.0
2018-Jun-12 18:29N 34°14' E 135°07'0 0.0
2018-Jun-12 18:00N 34°14' E 135°07'0 0.0
2018-Jun-12 17:30N 34°14' E 135°07'0 0.0
2018-Jun-12 17:00N 34°14' E 135°07'0 0.0
2018-Jun-12 16:29N 34°14' E 135°07'0 0.0
2018-Jun-12 15:59N 34°14' E 135°07'0 0.0
2018-Jun-12 15:30N 34°14' E 135°07'0 0.0
2018-Jun-12 14:59N 34°14' E 135°07'0 0.0
2018-Jun-12 14:29N 34°14' E 135°07'0 0.0
2018-Jun-12 13:59N 34°14' E 135°07'0 0.0
2018-Jun-12 13:11N 34°14' E 135°07'0 0.0
2018-Jun-12 12:59N 34°14' E 135°07'0 0.0
2018-Jun-12 12:24N 34°14' E 135°07'0 0.0
2018-Jun-12 12:00N 34°14' E 135°07'  
Track history (hours):
 
Tides and Currents Weather Stations Pressure Air Temp Water Temp Dewpoint Dewpoint Depression Visibility Wind Speed Wind Dir Waves Ship Positions

Noble Oak

Last reported at 2018-Jun-22 11:35 UTC. Time now 2018-Jun-23 23:37 UTC.
Position N 22°49' E 120°05'.

Length 170 m; draft 5.6 m.

Type: Cargo ship. MMSI: 371387000.

Date/timePositionNaut miles runAvg speedWind from/ knotsBaromVisibWave heightAir tempDewpointWater temp
2018-Jun-22 11:35N 22°49' E 120°05'112.6
2018-Jun-22 11:30N 22°49' E 120°05'612.9
2018-Jun-22 11:00N 22°43' E 120°09'611.9
2018-Jun-22 10:30N 22°38' E 120°13'4 8.2
2018-Jun-22 10:00N 22°37' E 120°17'1 2.1
2018-Jun-22 09:30N 22°36' E 120°18'0 0.2
2018-Jun-22 08:52N 22°36' E 120°18'0 0.0
2018-Jun-22 08:28N 22°36' E 120°18'0 0.0
2018-Jun-22 07:58N 22°36' E 120°18'0 0.0
2018-Jun-22 06:52N 22°36' E 120°18'0 0.0
2018-Jun-22 06:28N 22°36' E 120°18'0 0.0
2018-Jun-22 05:58N 22°36' E 120°18'0 0.0
2018-Jun-22 05:28N 22°36' E 120°18'0 0.0
2018-Jun-22 04:58N 22°36' E 120°18'0 0.0
2018-Jun-22 04:28N 22°36' E 120°18'0 0.0
2018-Jun-22 03:46N 22°36' E 120°18'0 0.0
2018-Jun-22 03:28N 22°36' E 120°18'0 0.0
2018-Jun-22 02:58N 22°36' E 120°18'0 0.0
2018-Jun-22 02:28N 22°36' E 120°18'0 0.0
2018-Jun-22 01:58N 22°36' E 120°18'0 0.0
2018-Jun-22 01:28N 22°36' E 120°18'0 0.0
2018-Jun-22 00:58N 22°36' E 120°18'0 0.0
2018-Jun-22 00:28N 22°36' E 120°18'0 0.0
2018-Jun-21 23:58N 22°36' E 120°18'0 0.0
2018-Jun-21 23:28N 22°36' E 120°18'0 0.0
2018-Jun-21 22:58N 22°36' E 120°18'0 0.0
2018-Jun-21 22:28N 22°36' E 120°18'0 0.0
2018-Jun-21 21:58N 22°36' E 120°18'0 0.0
2018-Jun-21 21:22N 22°36' E 120°18'0 0.0
2018-Jun-21 20:58N 22°36' E 120°18'0 0.0
2018-Jun-21 20:22N 22°36' E 120°18'0 0.0
2018-Jun-21 19:58N 22°36' E 120°18'0 0.0
2018-Jun-21 19:22N 22°36' E 120°18'0 0.0
2018-Jun-21 18:58N 22°36' E 120°18'0 0.0
2018-Jun-21 18:28N 22°36' E 120°18'0 0.0
2018-Jun-21 17:58N 22°36' E 120°18'0 0.0
2018-Jun-21 17:28N 22°36' E 120°18'0 0.0
2018-Jun-21 16:58N 22°36' E 120°18'0 0.0
2018-Jun-21 16:28N 22°36' E 120°18'0 0.0
2018-Jun-21 15:58N 22°36' E 120°18'0 0.0
2018-Jun-21 15:22N 22°36' E 120°18'0 0.0
2018-Jun-21 14:58N 22°36' E 120°18'0 0.0
2018-Jun-21 14:28N 22°36' E 120°18'0 0.0
2018-Jun-21 13:58N 22°36' E 120°18'0 0.0
2018-Jun-21 13:28N 22°36' E 120°18'0 0.0
2018-Jun-21 12:34N 22°36' E 120°18'0 0.0
2018-Jun-21 12:16N 22°36' E 120°18'0 0.0
2018-Jun-21 11:58N 22°36' E 120°18'0 0.0
2018-Jun-21 11:28N 22°36' E 120°18'0 0.0
2018-Jun-21 10:52N 22°36' E 120°18'0 0.0
2018-Jun-21 10:28N 22°36' E 120°18'0 0.0
2018-Jun-21 09:58N 22°36' E 120°18'0 0.0
2018-Jun-21 09:28N 22°36' E 120°18'0 0.0
2018-Jun-21 08:52N 22°36' E 120°18'0 0.0
2018-Jun-21 08:28N 22°36' E 120°18'0 0.0
2018-Jun-21 07:58N 22°36' E 120°18'0 0.0
2018-Jun-21 07:22N 22°36' E 120°18'0 0.0
2018-Jun-21 07:01N 22°36' E 120°18'1 1.3
2018-Jun-21 06:30N 22°37' E 120°17'3 6.5
2018-Jun-21 06:00N 22°37' E 120°14'2 4.5
2018-Jun-21 05:30N 22°38' E 120°12'5 9.0
2018-Jun-21 05:00N 22°42' E 120°09'510.0
2018-Jun-21 04:30N 22°46' E 120°07'6 9.6
2018-Jun-21 03:56N 22°51' E 120°04'5 9.8
2018-Jun-21 03:24N 22°55' E 120°01'  
2018-Jun-16 08:57N 33°56' E 134°56'511.2
2018-Jun-16 08:30N 34°01' E 134°58'511.1
2018-Jun-16 08:00N 34°06' E 135°01'611.7
2018-Jun-16 07:30N 34°11' E 135°04'4 7.9
2018-Jun-16 07:00N 34°14' E 135°07'0 0.6
2018-Jun-16 06:30N 34°14' E 135°07'0 0.0
2018-Jun-16 06:00N 34°14' E 135°07'0 0.0
2018-Jun-16 05:30N 34°14' E 135°07'0 0.0
2018-Jun-16 04:59N 34°14' E 135°07'0 0.0
2018-Jun-16 04:15N 34°14' E 135°07'0 0.0
2018-Jun-16 03:45N 34°14' E 135°07'0 0.0
2018-Jun-16 03:30N 34°14' E 135°07'0 0.0
2018-Jun-16 02:59N 34°14' E 135°07'0 0.0
2018-Jun-16 02:27N 34°14' E 135°07'0 0.0
2018-Jun-16 02:00N 34°14' E 135°07'0 0.0
2018-Jun-16 01:29N 34°14' E 135°07'0 0.0
2018-Jun-16 01:00N 34°14' E 135°07'0 0.0
2018-Jun-16 00:21N 34°14' E 135°07'0 0.0
2018-Jun-15 23:56N 34°14' E 135°07'0 0.0
2018-Jun-15 23:24N 34°14' E 135°07'0 0.0
2018-Jun-15 22:59N 34°14' E 135°07'0 0.0
2018-Jun-15 22:29N 34°14' E 135°07'0 0.0
2018-Jun-15 21:53N 34°14' E 135°07'0 0.0
2018-Jun-15 21:29N 34°14' E 135°07'0 0.0
2018-Jun-15 20:59N 34°14' E 135°07'0 0.0
2018-Jun-15 20:29N 34°14' E 135°07'0 0.0
2018-Jun-15 20:00N 34°14' E 135°07'0 0.0
2018-Jun-15 19:29N 34°14' E 135°07'0 0.0
2018-Jun-15 19:00N 34°14' E 135°07'0 0.0
2018-Jun-15 18:29N 34°14' E 135°07'0 0.0
2018-Jun-15 18:00N 34°14' E 135°07'0 0.1
2018-Jun-15 17:26N 34°14' E 135°07'0 0.1
2018-Jun-15 17:00N 34°14' E 135°07'0 0.0
2018-Jun-15 16:29N 34°14' E 135°07'0 0.0
2018-Jun-15 16:00N 34°14' E 135°07'0 0.0
2018-Jun-15 15:29N 34°14' E 135°07'0 0.0
2018-Jun-15 15:00N 34°14' E 135°07'0 0.0
2018-Jun-15 14:30N 34°14' E 135°07'0 0.0
2018-Jun-15 14:00N 34°14' E 135°07'0 0.0
2018-Jun-15 13:29N 34°14' E 135°07'0 0.0
2018-Jun-15 13:00N 34°14' E 135°07'0 0.0
2018-Jun-15 12:30N 34°14' E 135°07'0 0.0
2018-Jun-15 11:57N 34°14' E 135°07'0 0.0
2018-Jun-15 11:29N 34°14' E 135°07'0 0.0
2018-Jun-15 10:59N 34°14' E 135°07'0 0.0
2018-Jun-15 10:30N 34°14' E 135°07'0 0.0
2018-Jun-15 10:00N 34°14' E 135°07'0 0.0
2018-Jun-15 09:29N 34°14' E 135°07'0 0.0
2018-Jun-15 09:00N 34°14' E 135°07'0 0.0
2018-Jun-15 08:30N 34°14' E 135°07'0 0.0
2018-Jun-15 07:59N 34°14' E 135°07'0 0.0
2018-Jun-15 07:30N 34°14' E 135°07'0 0.0
2018-Jun-15 06:59N 34°14' E 135°07'0 0.0
2018-Jun-15 06:30N 34°14' E 135°07'0 0.0
2018-Jun-15 05:59N 34°14' E 135°07'0 0.0
2018-Jun-15 05:29N 34°14' E 135°07'0 0.0
2018-Jun-15 04:59N 34°14' E 135°07'0 0.0
2018-Jun-15 04:30N 34°14' E 135°07'0 0.0
2018-Jun-15 03:59N 34°14' E 135°07'0 0.0
2018-Jun-15 03:30N 34°14' E 135°07'0 0.0
2018-Jun-15 03:00N 34°14' E 135°07'0 0.0
2018-Jun-15 02:30N 34°14' E 135°07'0 0.0
2018-Jun-15 02:00N 34°14' E 135°07'0 0.0
2018-Jun-15 01:30N 34°14' E 135°07'0 0.0
2018-Jun-15 00:59N 34°14' E 135°07'0 0.0
2018-Jun-15 00:29N 34°14' E 135°07'0 0.0
2018-Jun-14 23:59N 34°14' E 135°07'0 0.0
2018-Jun-14 23:30N 34°14' E 135°07'0 0.0
2018-Jun-14 22:59N 34°14' E 135°07'0 0.0
2018-Jun-14 22:30N 34°14' E 135°07'0 0.0
2018-Jun-14 22:00N 34°14' E 135°07'0 0.0
2018-Jun-14 21:30N 34°14' E 135°07'0 0.0
2018-Jun-14 21:00N 34°14' E 135°07'0 0.0
2018-Jun-14 20:30N 34°14' E 135°07'0 0.0
2018-Jun-14 19:59N 34°14' E 135°07'0 0.0
2018-Jun-14 19:29N 34°14' E 135°07'0 0.0
2018-Jun-14 18:59N 34°14' E 135°07'0 0.0
2018-Jun-14 18:30N 34°14' E 135°07'0 0.0
2018-Jun-14 18:00N 34°14' E 135°07'0 0.0
2018-Jun-14 17:29N 34°14' E 135°07'0 0.0
2018-Jun-14 17:00N 34°14' E 135°07'0 0.0
2018-Jun-14 16:29N 34°14' E 135°07'0 0.0
2018-Jun-14 16:00N 34°14' E 135°07'0 0.0
2018-Jun-14 15:29N 34°14' E 135°07'0 0.0
2018-Jun-14 15:00N 34°14' E 135°07'0 0.0
2018-Jun-14 14:29N 34°14' E 135°07'0 0.0
2018-Jun-14 13:59N 34°14' E 135°07'0 0.0
2018-Jun-14 13:30N 34°14' E 135°07'0 0.0
2018-Jun-14 13:00N 34°14' E 135°07'0 0.0
2018-Jun-14 12:26N 34°14' E 135°07'0 0.0
2018-Jun-14 12:00N 34°14' E 135°07'0 0.0
2018-Jun-14 11:29N 34°14' E 135°07'0 0.0
2018-Jun-14 11:00N 34°14' E 135°07'0 0.0
2018-Jun-14 10:29N 34°14' E 135°07'0 0.0
2018-Jun-14 10:00N 34°14' E 135°07'0 0.0
2018-Jun-14 09:30N 34°14' E 135°07'0 0.0
2018-Jun-14 08:56N 34°14' E 135°07'0 0.0
2018-Jun-14 08:30N 34°14' E 135°07'0 0.0
2018-Jun-14 08:00N 34°14' E 135°07'0 0.0
2018-Jun-14 07:30N 34°14' E 135°07'0 0.0
2018-Jun-14 06:57N 34°14' E 135°07'0 0.0
2018-Jun-14 06:27N 34°14' E 135°07'0 0.0
2018-Jun-14 05:57N 34°14' E 135°07'0 0.0
2018-Jun-14 05:27N 34°14' E 135°07'0 0.0
2018-Jun-14 04:59N 34°14' E 135°07'0 0.0
2018-Jun-14 04:27N 34°14' E 135°07'0 0.0
2018-Jun-14 03:56N 34°14' E 135°07'0 0.0
2018-Jun-14 03:29N 34°14' E 135°07'0 0.0
2018-Jun-14 02:57N 34°14' E 135°07'0 0.0
2018-Jun-14 02:30N 34°14' E 135°07'0 0.0
2018-Jun-14 02:00N 34°14' E 135°07'0 0.0
2018-Jun-14 01:29N 34°14' E 135°07'0 0.0
2018-Jun-14 00:59N 34°14' E 135°07'0 0.0
2018-Jun-14 00:30N 34°14' E 135°07'0 0.0
2018-Jun-13 23:57N 34°14' E 135°07'0 0.0
2018-Jun-13 23:27N 34°14' E 135°07'0 0.0
2018-Jun-13 22:56N 34°14' E 135°07'0 0.0
2018-Jun-13 22:29N 34°14' E 135°07'0 0.0
2018-Jun-13 21:57N 34°14' E 135°07'0 0.0
2018-Jun-13 21:27N 34°14' E 135°07'0 0.0
2018-Jun-13 20:57N 34°14' E 135°07'0 0.0
2018-Jun-13 20:27N 34°14' E 135°07'0 0.0
2018-Jun-13 19:56N 34°14' E 135°07'0 0.0
2018-Jun-13 19:30N 34°14' E 135°07'0 0.0
2018-Jun-13 18:57N 34°14' E 135°07'0 0.0
2018-Jun-13 18:30N 34°14' E 135°07'0 0.0
2018-Jun-13 17:59N 34°14' E 135°07'0 0.0
2018-Jun-13 17:30N 34°14' E 135°07'0 0.0
2018-Jun-13 16:56N 34°14' E 135°07'0 0.0
2018-Jun-13 16:29N 34°14' E 135°07'0 0.0
2018-Jun-13 15:51N 34°14' E 135°07'0 0.0
2018-Jun-13 15:26N 34°14' E 135°07'0 0.0
2018-Jun-13 14:56N 34°14' E 135°07'0 0.0
2018-Jun-13 14:27N 34°14' E 135°07'0 0.0
2018-Jun-13 13:56N 34°14' E 135°07'0 0.0
2018-Jun-13 13:26N 34°14' E 135°07'0 0.0
2018-Jun-13 12:59N 34°14' E 135°07'0 0.0
2018-Jun-13 12:26N 34°14' E 135°07'0 0.0
2018-Jun-13 11:59N 34°14' E 135°07'0 0.0
2018-Jun-13 11:29N 34°14' E 135°07'0 0.0
2018-Jun-13 10:59N 34°14' E 135°07'0 0.0
2018-Jun-13 10:29N 34°14' E 135°07'0 0.0
2018-Jun-13 09:59N 34°14' E 135°07'0 0.0
2018-Jun-13 09:30N 34°14' E 135°07'0 0.0
2018-Jun-13 09:00N 34°14' E 135°07'0 0.0
2018-Jun-13 08:29N 34°14' E 135°07'0 0.0
2018-Jun-13 07:59N 34°14' E 135°07'0 0.0
2018-Jun-13 07:30N 34°14' E 135°07'0 0.0
2018-Jun-13 07:00N 34°14' E 135°07'0 0.0
2018-Jun-13 06:29N 34°14' E 135°07'0 0.0
2018-Jun-13 05:59N 34°14' E 135°07'0 0.0
2018-Jun-13 05:30N 34°14' E 135°07'0 0.0
2018-Jun-13 05:00N 34°14' E 135°07'0 0.0
2018-Jun-13 04:29N 34°14' E 135°07'0 0.0
2018-Jun-13 03:59N 34°14' E 135°07'0 0.0
2018-Jun-13 03:29N 34°14' E 135°07'0 0.0
2018-Jun-13 02:59N 34°14' E 135°07'0 0.0
2018-Jun-13 02:29N 34°14' E 135°07'0 0.0
2018-Jun-13 02:00N 34°14' E 135°07'0 0.0
2018-Jun-13 01:29N 34°14' E 135°07'0 0.0
2018-Jun-13 01:00N 34°14' E 135°07'0 0.0
2018-Jun-13 00:29N 34°14' E 135°07'0 0.0
2018-Jun-13 00:00N 34°14' E 135°07'0 0.0
2018-Jun-12 23:29N 34°14' E 135°07'0 0.0
2018-Jun-12 22:59N 34°14' E 135°07'0 0.0
2018-Jun-12 22:30N 34°14' E 135°07'0 0.0
2018-Jun-12 21:59N 34°14' E 135°07'0 0.0
2018-Jun-12 21:23N 34°14' E 135°07'0 0.0
2018-Jun-12 20:59N 34°14' E 135°07'0 0.0
2018-Jun-12 20:29N 34°14' E 135°07'0 0.0
2018-Jun-12 19:59N 34°14' E 135°07'0 0.0
2018-Jun-12 19:29N 34°14' E 135°07'0 0.0
2018-Jun-12 19:00N 34°14' E 135°07'0 0.0
2018-Jun-12 18:29N 34°14' E 135°07'0 0.0
2018-Jun-12 18:00N 34°14' E 135°07'0 0.0
2018-Jun-12 17:30N 34°14' E 135°07'0 0.0
2018-Jun-12 17:00N 34°14' E 135°07'0 0.0
2018-Jun-12 16:29N 34°14' E 135°07'0 0.0
2018-Jun-12 15:59N 34°14' E 135°07'0 0.0
2018-Jun-12 15:30N 34°14' E 135°07'0 0.0
2018-Jun-12 14:59N 34°14' E 135°07'0 0.0
2018-Jun-12 14:29N 34°14' E 135°07'0 0.0
2018-Jun-12 13:59N 34°14' E 135°07'0 0.0
2018-Jun-12 13:11N 34°14' E 135°07'0 0.0
2018-Jun-12 12:59N 34°14' E 135°07'0 0.0
2018-Jun-12 12:24N 34°14' E 135°07'0 0.0
2018-Jun-12 12:00N 34°14' E 135°07'  

Dump ship's entire track history